Amherst, SD (57421)

2:34 PM CST on February 09, 2016 (GMT -0600)
NonFedAWOS | | Change Station
CLOSE
Current Station
Personal Weather Station
Location: Britton, SD
Elevation: 1317 ft
Nearby Weather Stations

Elev 1317 ft 45.82 °N, 97.74 °W | Updated 39 minutes ago

Overcast
Overcast
23 °F
Feels Like 15 °F
N
7
Wind Variable Wind from NNW
Gusts 0.0 mph

Today
High -- | Low -- °F
--% Chance of Precip.
Yesterday
High -- | Low -- °F
Precip. -- in
Pressure 30.29 in
Visibility 10.0 miles
Clouds Overcast 6000 ft
Windchill 15 °F
Dew Point 7 °F
Humidity 49%
Rainfall in
Snow Depth Not available.
7:43 AM 5:49 PM
New Moon, 2% visible
METAR KABR 091953Z AUTO VRB05KT 10SM OVC060 M01/M12 A3022 RMK AO2 SLP255 T10061117
Pressure 30.29 in
Visibility 10.0 miles
Clouds Overcast 6000 ft
Windchill 15 °F
Dew Point 7 °F
Humidity 49%
Rainfall in
Snow Depth Not available.
7:43 AM 5:49 PM
New Moon, 2% visible
METAR KABR 091953Z AUTO VRB05KT 10SM OVC060 M01/M12 A3022 RMK AO2 SLP255 T10061117

10-Day Weather Forecast

Almanac

Astronomy

Feb. 09, 2016 Rise Set
Actual Time
Civil Twilight
Nautical Twilight
Astronomical Twilight
Moon
Length of Visible Light
Length of Day
Tomorrow will be .
, % of the Moon is Illuminated

Today's Extremes

State Highs State Lows

Community

WunderPhotos

Upload Photos

1,891,679 photos uploaded!

WunderBlog® & News

Nearby

Air Quality

  Air Quality AQ Index Pollutant
Not available.

Snow Depth

Station Depth Elevation

Earthquake Activity

City Distance Mag. Time & Date
Minimum magnitude displayed is 2.5.

Coastal Water Temperatures

Place Temperature

Stations

Nearby Weather Stations

Station Location Temp. Windchill Dew Point Humidity Wind Precip. Elev Updated Type
                   

Watches & Warnings

There are currently no watches in effect.